Indianapolis, Greenwood Municipal Airport (KHFY)

NameGreenwood Municipal Airport
CityIndianapolis
CountryUnited States
ICAOKHFY
IATA
Altitude251 m
CoordinatesGoogle Map
Live Air TrafficLiveATC.net
METARKHFY 091150Z AUTO 36010G15KT 10SM CLR 12/06 A2985 RMK AO2 6//// 7//// T01200056
2019-04-09 11:50:00 Wind: North (360°) 5.14 m/s - Visibility: 16093.4 m - Temperature: 12 °C - Dew point: 6 °C - Humidity: 67% - Pressure: 1010.84 hPa

Sorry, no flights used the airport in this database.